createdAt,value
2019-04-16T00:02:59.532Z,53.63
2019-04-16T00:08:27.444Z,53.67
2019-04-16T00:13:33.618Z,53.63
2019-04-16T00:23:36.329Z,52.52
2019-04-16T00:28:43.458Z,53.90
2019-04-16T00:33:50.584Z,54.28
2019-04-16T00:38:57.515Z,54.78
2019-04-16T00:44:04.535Z,54.89
2019-04-16T00:49:11.496Z,55.05
2019-04-16T00:54:18.578Z,55.62
2019-04-16T00:59:25.469Z,55.56
2019-04-16T01:04:32.478Z,55.71
2019-04-16T01:09:39.572Z,55.68
2019-04-16T01:14:46.606Z,55.99
2019-04-16T01:19:53.590Z,56.01
2019-04-16T01:25:00.525Z,56.37
2019-04-16T01:30:09.569Z,56.55
2019-04-16T01:35:33.622Z,56.95
2019-04-16T01:40:50.939Z,56.89
2019-04-16T01:46:01.558Z,57.04
2019-04-16T01:51:08.465Z,57.04
2019-04-16T01:56:16.607Z,57.23
2019-04-16T02:01:23.436Z,56.87
2019-04-16T02:06:30.585Z,56.87
2019-04-16T02:11:38.871Z,56.70
2019-04-16T02:16:46.422Z,56.70
2019-04-16T02:21:53.479Z,56.54
2019-04-16T02:27:00.450Z,56.46
2019-04-16T02:32:07.593Z,56.63
2019-04-16T02:37:14.538Z,56.39
2019-04-16T02:42:21.478Z,56.39
2019-04-16T02:47:28.589Z,56.29
2019-04-16T02:53:00.389Z,56.34
2019-04-16T02:58:10.791Z,56.35
2019-04-16T03:03:24.918Z,56.21
2019-04-16T03:08:36.168Z,56.21
2019-04-16T03:13:44.462Z,56.33
2019-04-16T03:18:56.429Z,56.23
2019-04-16T03:29:21.594Z,56.42
2019-04-16T03:34:28.837Z,56.49
2019-04-16T03:39:35.589Z,56.49
2019-04-16T03:44:42.492Z,56.63
2019-04-16T03:49:49.465Z,56.63
2019-04-16T03:54:56.594Z,56.68
2019-04-16T04:00:03.554Z,56.91
2019-04-16T04:05:10.502Z,57.04
2019-04-16T04:10:29.758Z,57.04
2019-04-16T04:15:27.252Z,57.20
2019-04-16T04:20:34.419Z,57.29
2019-04-16T04:25:41.511Z,57.45
2019-04-16T04:30:48.930Z,57.51
2019-04-16T04:35:56.441Z,57.55
2019-04-16T04:41:03.630Z,57.58
2019-04-16T04:46:14.558Z,57.79
2019-04-16T04:51:18.310Z,57.79
2019-04-16T04:56:27.998Z,57.82
2019-04-16T05:01:35.421Z,57.98
2019-04-16T05:06:45.066Z,57.98
2019-04-16T05:11:53.592Z,58.06
2019-04-16T05:17:00.606Z,58.06
2019-04-16T05:22:07.586Z,57.97
2019-04-16T05:27:15.228Z,57.97
2019-04-16T05:32:25.654Z,57.53
2019-04-16T05:37:31.918Z,57.53
2019-04-16T05:42:38.732Z,57.30
2019-04-16T05:47:49.003Z,57.10
2019-04-16T05:52:55.567Z,56.84
2019-04-16T05:58:02.455Z,56.23
2019-04-16T06:03:09.461Z,56.23
2019-04-16T06:08:16.456Z,55.85
2019-04-16T06:13:33.911Z,55.54
2019-04-16T06:19:08.367Z,55.19
2019-04-16T06:24:24.248Z,54.55
2019-04-16T06:29:53.386Z,54.11
2019-04-16T06:35:17.230Z,53.62
2019-04-16T06:40:38.464Z,53.15
2019-04-16T06:45:58.222Z,52.83
2019-04-16T06:51:36.574Z,52.39
2019-04-16T06:56:58.700Z,51.54
2019-04-16T07:02:24.872Z,51.02
2019-04-16T07:08:00.933Z,51.02
2019-04-16T07:13:11.213Z,50.50
2019-04-16T07:18:20.508Z,50.17
2019-04-16T07:23:28.284Z,49.40
2019-04-16T07:28:42.844Z,49.27
2019-04-16T07:34:15.915Z,48.91
2019-04-16T07:39:36.984Z,48.35
2019-04-16T07:44:56.399Z,47.90
2019-04-16T07:50:10.515Z,47.25
2019-04-16T07:55:29.249Z,46.62
2019-04-16T08:00:40.314Z,46.62
2019-04-16T08:05:44.297Z,45.87
2019-04-16T08:10:51.402Z,45.37
2019-04-16T08:15:58.442Z,44.98
2019-04-16T08:21:10.133Z,43.91
2019-04-16T08:26:14.437Z,43.47
2019-04-16T08:31:24.857Z,43.04
2019-04-16T08:36:31.663Z,41.89
2019-04-16T08:41:38.475Z,40.21
2019-04-16T08:46:45.485Z,40.21
2019-04-16T08:51:52.473Z,39.53
2019-04-16T08:56:59.493Z,38.59
2019-04-16T09:02:07.413Z,37.79
2019-04-16T09:07:33.266Z,37.48
2019-04-16T09:12:43.447Z,35.38
2019-04-16T09:17:55.280Z,35.38
2019-04-16T09:23:02.583Z,34.07
2019-04-16T09:28:25.745Z,30.61
2019-04-16T09:33:34.578Z,30.61
2019-04-16T09:38:46.284Z,28.35
2019-04-16T09:43:57.387Z,28.35
2019-04-16T09:49:05.937Z,27.95
2019-04-16T09:54:14.030Z,26.83
2019-04-16T09:59:40.263Z,25.73
2019-04-16T10:04:47.519Z,25.59
2019-04-16T10:09:55.651Z,24.84
2019-04-16T10:15:02.467Z,24.00
2019-04-16T10:20:12.745Z,23.57
2019-04-16T10:25:19.612Z,23.57
2019-04-16T10:30:30.599Z,22.77
2019-04-16T10:35:37.552Z,22.73
2019-04-16T10:40:48.612Z,22.73
2019-04-16T10:46:04.430Z,21.64
2019-04-16T10:51:33.504Z,21.64
2019-04-16T10:56:58.578Z,21.15
2019-04-16T11:02:40.092Z,21.49
2019-04-16T11:07:47.266Z,21.14
2019-04-16T11:12:54.466Z,21.02
2019-04-16T11:18:04.497Z,20.52
2019-04-16T11:23:11.625Z,20.60
2019-04-16T11:28:19.430Z,20.37
2019-04-16T11:33:27.683Z,20.22
2019-04-16T11:38:34.623Z,20.40
2019-04-16T11:43:41.569Z,20.14
2019-04-16T11:48:50.348Z,19.93
2019-04-16T11:53:57.585Z,19.26
2019-04-16T11:59:04.585Z,19.50
2019-04-16T12:04:30.313Z,19.02
2019-04-16T12:09:58.475Z,19.19
2019-04-16T12:15:14.506Z,19.19
2019-04-16T12:20:39.580Z,18.59
2019-04-16T12:26:14.770Z,18.25
2019-04-16T12:31:35.818Z,18.25
2019-04-16T12:37:10.302Z,17.50
2019-04-16T12:42:32.772Z,17.50
2019-04-16T12:47:47.610Z,16.73
2019-04-16T12:52:59.316Z,16.82
2019-04-16T12:58:13.430Z,16.82
2019-04-16T13:03:46.286Z,17.17
2019-04-16T13:08:59.259Z,16.12
2019-04-16T13:14:24.520Z,16.15
2019-04-16T13:19:38.264Z,16.15
2019-04-16T13:24:47.801Z,15.77
2019-04-16T13:29:55.582Z,15.44
2019-04-16T13:35:02.431Z,15.07
2019-04-16T13:40:16.083Z,15.07
2019-04-16T13:45:32.265Z,15.13
2019-04-16T13:50:48.600Z,15.04
2019-04-16T13:56:18.627Z,14.59
2019-04-16T14:01:29.267Z,14.49
2019-04-16T14:06:41.272Z,14.49
2019-04-16T14:11:51.163Z,14.21
2019-04-16T14:16:57.620Z,14.31
2019-04-16T14:22:06.471Z,14.20
2019-04-16T14:27:14.479Z,13.94
2019-04-16T14:32:21.589Z,14.18
2019-04-16T14:37:29.252Z,13.74
2019-04-16T14:42:36.617Z,13.74
2019-04-16T14:47:43.613Z,13.69
2019-04-16T14:52:51.508Z,13.86
2019-04-16T14:58:21.678Z,13.86
2019-04-16T15:04:00.848Z,13.39
2019-04-16T15:09:19.753Z,13.39
2019-04-16T15:14:34.395Z,13.55
2019-04-16T15:19:48.566Z,13.64
2019-04-16T15:25:25.121Z,13.58
2019-04-16T15:31:00.720Z,13.58
2019-04-16T15:36:28.256Z,13.70
2019-04-16T15:41:53.429Z,13.77
2019-04-16T15:47:05.852Z,13.64
2019-04-16T15:52:38.916Z,13.97
2019-04-16T15:57:51.288Z,14.02
2019-04-16T16:03:32.920Z,14.03
2019-04-16T16:09:19.264Z,13.85
2019-04-16T16:14:25.331Z,13.85
2019-04-16T16:19:32.454Z,13.95
2019-04-16T16:24:42.223Z,13.79
2019-04-16T16:29:49.600Z,13.79
2019-04-16T16:38:42.058Z,14.07
2019-04-16T16:43:49.475Z,14.07
2019-04-16T16:48:56.754Z,13.99
2019-04-16T16:54:11.687Z,14.24
2019-04-16T16:59:28.374Z,14.98
2019-04-16T17:04:39.124Z,14.98
2019-04-16T17:09:46.572Z,15.21
2019-04-16T17:14:53.535Z,16.04
2019-04-16T17:20:02.276Z,16.04
2019-04-16T17:25:11.668Z,16.36
2019-04-16T17:30:18.265Z,17.03
2019-04-16T17:35:26.490Z,17.71
2019-04-16T17:40:51.154Z,18.74
2019-04-16T17:47:32.501Z,19.26
2019-04-16T17:56:33.391Z,19.79
2019-04-16T18:02:05.270Z,19.79
2019-04-16T18:07:36.415Z,20.11
2019-04-16T18:12:57.571Z,20.41
2019-04-16T18:18:15.676Z,21.75
2019-04-16T18:23:30.308Z,22.44
2019-04-16T18:28:41.604Z,22.44
2019-04-16T18:33:53.875Z,23.34
2019-04-16T18:39:29.269Z,23.34
2019-04-16T18:44:58.238Z,23.75
2019-04-16T18:50:08.732Z,24.09
2019-04-16T18:55:15.618Z,24.43
2019-04-16T19:00:53.857Z,24.63
2019-04-16T19:06:02.261Z,24.88
2019-04-16T19:11:10.357Z,25.02
2019-04-16T19:16:18.519Z,25.24
2019-04-16T19:21:25.478Z,25.40
2019-04-16T19:26:32.604Z,25.48
2019-04-16T19:31:39.593Z,25.71
2019-04-16T19:36:46.585Z,25.87
2019-04-16T19:41:57.512Z,25.87
2019-04-16T19:47:02.486Z,25.93
2019-04-16T19:52:09.581Z,26.01
2019-04-16T19:57:17.120Z,26.06
2019-04-16T20:02:24.601Z,26.24
2019-04-16T20:07:33.579Z,26.40
2019-04-16T20:12:40.612Z,26.40
2019-04-16T20:17:48.675Z,26.52
2019-04-16T20:22:59.210Z,26.52
2019-04-16T20:28:09.346Z,26.66
2019-04-16T20:33:15.488Z,26.83
2019-04-16T20:38:22.456Z,26.91
2019-04-16T20:43:29.854Z,27.06
2019-04-16T20:48:36.605Z,27.12
2019-04-16T20:53:43.591Z,27.41
2019-04-16T20:58:50.939Z,27.63
2019-04-16T21:04:05.065Z,27.63
2019-04-16T21:09:09.094Z,27.83
2019-04-16T21:14:18.876Z,27.99
2019-04-16T21:19:46.719Z,28.15
2019-04-16T21:24:54.455Z,28.28
2019-04-16T21:30:03.021Z,28.42
2019-04-16T21:35:32.030Z,28.64
2019-04-16T21:40:41.084Z,28.64
2019-04-16T21:45:49.032Z,28.92
2019-04-16T21:50:56.544Z,29.15
2019-04-16T21:59:21.088Z,28.78
2019-04-16T22:04:24.300Z,29.49
2019-04-16T22:09:31.428Z,29.83
2019-04-16T22:14:38.570Z,29.99
2019-04-16T22:19:53.784Z,30.22
2019-04-16T22:24:54.965Z,30.22
2019-04-16T22:30:02.162Z,30.34
2019-04-16T22:35:11.695Z,30.49
2019-04-16T22:40:28.271Z,30.62
2019-04-16T22:45:53.276Z,30.89
2019-04-16T22:50:59.370Z,30.95
2019-04-16T22:56:05.311Z,31.06
2019-04-16T23:01:14.132Z,31.23
2019-04-16T23:06:20.308Z,31.37
2019-04-16T23:11:28.604Z,31.54
2019-04-16T23:16:41.699Z,31.85
2019-04-16T23:21:45.612Z,31.85
2019-04-16T23:26:52.588Z,32.13
2019-04-16T23:32:00.276Z,32.32
2019-04-16T23:37:07.434Z,32.32
2019-04-16T23:42:18.812Z,32.47
2019-04-16T23:47:42.864Z,32.70
2019-04-16T23:52:58.709Z,32.96
2019-04-16T23:58:12.645Z,33.08
